sensor_id;sensor_type;location;lat;lon;timestamp;temperature;humidity
1686;DHT22;840;47.980;7.830;2022-11-12T00:01:38;6.80;99.90
1686;DHT22;840;47.980;7.830;2022-11-12T00:04:07;6.80;99.90
1686;DHT22;840;47.980;7.830;2022-11-12T00:06:34;6.80;99.90
1686;DHT22;840;47.980;7.830;2022-11-12T00:09:01;6.80;99.90
1686;DHT22;840;47.980;7.830;2022-11-12T00:11:28;6.70;99.90
1686;DHT22;840;47.980;7.830;2022-11-12T00:13:55;6.70;99.90
1686;DHT22;840;47.980;7.830;2022-11-12T00:16:22;6.70;99.90
1686;DHT22;840;47.980;7.830;2022-11-12T00:18:49;6.70;99.90
1686;DHT22;840;47.980;7.830;2022-11-12T00:21:18;6.70;99.90
1686;DHT22;840;47.980;7.830;2022-11-12T00:23:46;6.70;99.90
1686;DHT22;840;47.980;7.830;2022-11-12T00:26:12;6.70;99.90
1686;DHT22;840;47.980;7.830;2022-11-12T00:28:40;6.70;99.90
1686;DHT22;840;47.980;7.830;2022-11-12T00:31:09;6.70;99.90
1686;DHT22;840;47.980;7.830;2022-11-12T00:33:39;6.70;99.90
1686;DHT22;840;47.980;7.830;2022-11-12T00:36:07;6.70;99.90
1686;DHT22;840;47.980;7.830;2022-11-12T00:38:35;6.70;99.90
1686;DHT22;840;47.980;7.830;2022-11-12T00:41:02;6.70;99.90
1686;DHT22;840;47.980;7.830;2022-11-12T00:43:29;6.70;99.90
1686;DHT22;840;47.980;7.830;2022-11-12T00:45:56;6.70;99.90
1686;DHT22;840;47.980;7.830;2022-11-12T00:48:22;6.70;99.90
1686;DHT22;840;47.980;7.830;2022-11-12T00:50:49;6.70;99.90
1686;DHT22;840;47.980;7.830;2022-11-12T00:53:16;6.60;99.90
1686;DHT22;840;47.980;7.830;2022-11-12T00:55:45;6.40;99.90
1686;DHT22;840;47.980;7.830;2022-11-12T00:58:12;6.30;99.90
1686;DHT22;840;47.980;7.830;2022-11-12T01:00:41;6.20;99.90
1686;DHT22;840;47.980;7.830;2022-11-12T01:03:12;6.20;99.90
1686;DHT22;840;47.980;7.830;2022-11-12T01:05:38;6.10;99.90
1686;DHT22;840;47.980;7.830;2022-11-12T01:08:05;6.00;99.90
1686;DHT22;840;47.980;7.830;2022-11-12T01:10:34;6.00;99.90
1686;DHT22;840;47.980;7.830;2022-11-12T01:13:03;5.90;99.90
1686;DHT22;840;47.980;7.830;2022-11-12T01:15:30;5.90;99.90
1686;DHT22;840;47.980;7.830;2022-11-12T01:17:57;6.00;99.90
1686;DHT22;840;47.980;7.830;2022-11-12T01:20:23;6.00;99.90
1686;DHT22;840;47.980;7.830;2022-11-12T01:22:50;6.00;99.90
1686;DHT22;840;47.980;7.830;2022-11-12T01:25:17;6.00;99.90
1686;DHT22;840;47.980;7.830;2022-11-12T01:27:43;6.00;99.90
1686;DHT22;840;47.980;7.830;2022-11-12T01:30:12;6.00;99.90
1686;DHT22;840;47.980;7.830;2022-11-12T01:32:39;6.00;99.90
1686;DHT22;840;47.980;7.830;2022-11-12T01:35:06;6.10;99.90
1686;DHT22;840;47.980;7.830;2022-11-12T01:37:33;6.10;99.90
1686;DHT22;840;47.980;7.830;2022-11-12T01:40:00;6.10;99.90
1686;DHT22;840;47.980;7.830;2022-11-12T01:42:29;6.10;99.90
1686;DHT22;840;47.980;7.830;2022-11-12T01:44:57;6.10;99.90
1686;DHT22;840;47.980;7.830;2022-11-12T01:47:27;6.10;99.90
1686;DHT22;840;47.980;7.830;2022-11-12T01:49:58;6.10;99.90
1686;DHT22;840;47.980;7.830;2022-11-12T01:52:29;6.10;99.90
1686;DHT22;840;47.980;7.830;2022-11-12T01:55:00;6.10;99.90
1686;DHT22;840;47.980;7.830;2022-11-12T01:57:31;6.10;99.90
1686;DHT22;840;47.980;7.830;2022-11-12T02:00:04;6.10;99.90
1686;DHT22;840;47.980;7.830;2022-11-12T02:02:33;6.10;99.90
1686;DHT22;840;47.980;7.830;2022-11-12T02:05:01;6.10;99.90
1686;DHT22;840;47.980;7.830;2022-11-12T02:07:30;6.10;99.90
1686;DHT22;840;47.980;7.830;2022-11-12T02:09:59;6.10;99.90
1686;DHT22;840;47.980;7.830;2022-11-12T02:12:27;6.10;99.90
1686;DHT22;840;47.980;7.830;2022-11-12T02:15:11;6.10;99.90
1686;DHT22;840;47.980;7.830;2022-11-12T02:17:39;6.10;99.90
1686;DHT22;840;47.980;7.830;2022-11-12T02:20:08;6.00;99.90
1686;DHT22;840;47.980;7.830;2022-11-12T02:22:37;6.00;99.90
1686;DHT22;840;47.980;7.830;2022-11-12T02:25:05;6.00;99.90
1686;DHT22;840;47.980;7.830;2022-11-12T02:27:33;6.00;99.90
1686;DHT22;840;47.980;7.830;2022-11-12T02:30:00;6.00;99.90
1686;DHT22;840;47.980;7.830;2022-11-12T02:32:28;6.10;99.90
1686;DHT22;840;47.980;7.830;2022-11-12T02:34:54;6.10;99.90
1686;DHT22;840;47.980;7.830;2022-11-12T02:37:22;6.10;99.90
1686;DHT22;840;47.980;7.830;2022-11-12T02:39:50;6.00;99.90
1686;DHT22;840;47.980;7.830;2022-11-12T02:42:17;6.10;99.90
1686;DHT22;840;47.980;7.830;2022-11-12T02:44:44;6.10;99.90
1686;DHT22;840;47.980;7.830;2022-11-12T02:47:11;6.10;99.90
1686;DHT22;840;47.980;7.830;2022-11-12T02:49:38;6.20;99.90
1686;DHT22;840;47.980;7.830;2022-11-12T02:52:05;6.20;99.90
1686;DHT22;840;47.980;7.830;2022-11-12T02:54:32;6.20;99.90
1686;DHT22;840;47.980;7.830;2022-11-12T02:57:00;6.30;99.90
1686;DHT22;840;47.980;7.830;2022-11-12T02:59:27;6.30;99.90
1686;DHT22;840;47.980;7.830;2022-11-12T03:01:54;6.40;99.90
1686;DHT22;840;47.980;7.830;2022-11-12T03:04:21;6.40;99.90
1686;DHT22;840;47.980;7.830;2022-11-12T03:06:48;6.50;99.90
1686;DHT22;840;47.980;7.830;2022-11-12T03:09:15;6.60;99.90
1686;DHT22;840;47.980;7.830;2022-11-12T03:11:42;6.60;99.90
1686;DHT22;840;47.980;7.830;2022-11-12T03:14:11;6.70;99.90
1686;DHT22;840;47.980;7.830;2022-11-12T03:16:39;6.70;99.90
1686;DHT22;840;47.980;7.830;2022-11-12T03:19:06;6.80;99.90
1686;DHT22;840;47.980;7.830;2022-11-12T03:21:33;6.80;99.90
1686;DHT22;840;47.980;7.830;2022-11-12T03:24:00;6.90;99.90
1686;DHT22;840;47.980;7.830;2022-11-12T03:26:27;6.90;99.90
1686;DHT22;840;47.980;7.830;2022-11-12T03:28:54;6.90;99.90
1686;DHT22;840;47.980;7.830;2022-11-12T03:31:22;7.00;99.90
1686;DHT22;840;47.980;7.830;2022-11-12T03:33:49;7.00;99.90
1686;DHT22;840;47.980;7.830;2022-11-12T03:36:16;7.00;99.90
1686;DHT22;840;47.980;7.830;2022-11-12T03:38:43;7.00;99.90
1686;DHT22;840;47.980;7.830;2022-11-12T03:41:10;7.00;99.90
1686;DHT22;840;47.980;7.830;2022-11-12T03:43:36;7.10;99.90
1686;DHT22;840;47.980;7.830;2022-11-12T03:46:03;7.10;99.90
1686;DHT22;840;47.980;7.830;2022-11-12T03:48:32;7.00;99.90
1686;DHT22;840;47.980;7.830;2022-11-12T03:50:59;7.00;99.90
1686;DHT22;840;47.980;7.830;2022-11-12T03:53:26;7.00;99.90
1686;DHT22;840;47.980;7.830;2022-11-12T03:55:52;7.00;99.90
1686;DHT22;840;47.980;7.830;2022-11-12T03:58:20;6.90;99.90
1686;DHT22;840;47.980;7.830;2022-11-12T04:00:47;6.80;99.90
1686;DHT22;840;47.980;7.830;2022-11-12T04:03:14;6.80;99.90
1686;DHT22;840;47.980;7.830;2022-11-12T04:05:42;6.80;99.90
1686;DHT22;840;47.980;7.830;2022-11-12T04:08:27;6.70;99.90
1686;DHT22;840;47.980;7.830;2022-11-12T04:11:04;6.70;99.90
1686;DHT22;840;47.980;7.830;2022-11-12T04:13:32;6.70;99.90
1686;DHT22;840;47.980;7.830;2022-11-12T04:16:00;6.60;99.90
1686;DHT22;840;47.980;7.830;2022-11-12T04:18:46;6.60;99.90
1686;DHT22;840;47.980;7.830;2022-11-12T04:21:35;6.50;99.90
1686;DHT22;840;47.980;7.830;2022-11-12T04:24:22;6.50;99.90
1686;DHT22;840;47.980;7.830;2022-11-12T04:27:08;6.50;99.90
1686;DHT22;840;47.980;7.830;2022-11-12T04:29:35;6.50;99.90
1686;DHT22;840;47.980;7.830;2022-11-12T04:32:20;6.50;99.90
1686;DHT22;840;47.980;7.830;2022-11-12T04:34:47;6.50;99.90
1686;DHT22;840;47.980;7.830;2022-11-12T04:37:15;6.50;99.90
1686;DHT22;840;47.980;7.830;2022-11-12T04:39:42;6.50;99.90
1686;DHT22;840;47.980;7.830;2022-11-12T04:42:10;6.50;99.90
1686;DHT22;840;47.980;7.830;2022-11-12T04:44:54;6.50;99.90
1686;DHT22;840;47.980;7.830;2022-11-12T04:47:31;6.50;99.90
1686;DHT22;840;47.980;7.830;2022-11-12T04:49:59;6.50;99.90
1686;DHT22;840;47.980;7.830;2022-11-12T04:52:31;6.50;99.90
1686;DHT22;840;47.980;7.830;2022-11-12T04:54:59;6.50;99.90
1686;DHT22;840;47.980;7.830;2022-11-12T04:57:26;6.50;99.90
1686;DHT22;840;47.980;7.830;2022-11-12T04:59:53;6.50;99.90
1686;DHT22;840;47.980;7.830;2022-11-12T05:02:20;6.40;99.90
1686;DHT22;840;47.980;7.830;2022-11-12T05:04:47;6.40;99.90
1686;DHT22;840;47.980;7.830;2022-11-12T05:07:15;6.40;99.90
1686;DHT22;840;47.980;7.830;2022-11-12T05:09:43;6.40;99.90
1686;DHT22;840;47.980;7.830;2022-11-12T05:12:10;6.30;99.90
1686;DHT22;840;47.980;7.830;2022-11-12T05:14:37;6.30;99.90
1686;DHT22;840;47.980;7.830;2022-11-12T05:17:04;6.30;99.90
1686;DHT22;840;47.980;7.830;2022-11-12T05:19:31;6.30;99.90
1686;DHT22;840;47.980;7.830;2022-11-12T05:21:59;6.30;99.90
1686;DHT22;840;47.980;7.830;2022-11-12T05:24:32;6.30;99.90
1686;DHT22;840;47.980;7.830;2022-11-12T05:27:02;6.30;99.90
1686;DHT22;840;47.980;7.830;2022-11-12T05:29:29;6.30;99.90
1686;DHT22;840;47.980;7.830;2022-11-12T05:31:57;6.30;99.90
1686;DHT22;840;47.980;7.830;2022-11-12T05:34:23;6.30;99.90
1686;DHT22;840;47.980;7.830;2022-11-12T05:36:50;6.30;99.90
1686;DHT22;840;47.980;7.830;2022-11-12T05:39:17;6.30;99.90
1686;DHT22;840;47.980;7.830;2022-11-12T05:41:44;6.30;99.90
1686;DHT22;840;47.980;7.830;2022-11-12T05:44:12;6.30;99.90
1686;DHT22;840;47.980;7.830;2022-11-12T05:46:39;6.30;99.90
1686;DHT22;840;47.980;7.830;2022-11-12T05:49:06;6.30;99.90
1686;DHT22;840;47.980;7.830;2022-11-12T05:51:32;6.40;99.90
1686;DHT22;840;47.980;7.830;2022-11-12T05:53:59;6.40;99.90
1686;DHT22;840;47.980;7.830;2022-11-12T05:56:26;6.40;99.90
1686;DHT22;840;47.980;7.830;2022-11-12T05:58:53;6.40;99.90
1686;DHT22;840;47.980;7.830;2022-11-12T06:01:22;6.50;99.90
1686;DHT22;840;47.980;7.830;2022-11-12T06:03:49;6.50;99.90
1686;DHT22;840;47.980;7.830;2022-11-12T06:06:15;6.50;99.90
1686;DHT22;840;47.980;7.830;2022-11-12T06:08:43;6.50;99.90
1686;DHT22;840;47.980;7.830;2022-11-12T06:11:10;6.50;99.90
1686;DHT22;840;47.980;7.830;2022-11-12T06:13:37;6.50;99.90
1686;DHT22;840;47.980;7.830;2022-11-12T06:16:04;6.50;99.90
1686;DHT22;840;47.980;7.830;2022-11-12T06:18:33;6.60;99.90
1686;DHT22;840;47.980;7.830;2022-11-12T06:21:01;6.60;99.90
1686;DHT22;840;47.980;7.830;2022-11-12T06:23:48;6.60;99.90
1686;DHT22;840;47.980;7.830;2022-11-12T06:26:16;6.60;99.90
1686;DHT22;840;47.980;7.830;2022-11-12T06:28:43;6.60;99.90
1686;DHT22;840;47.980;7.830;2022-11-12T06:31:11;6.60;99.90
1686;DHT22;840;47.980;7.830;2022-11-12T06:33:40;6.60;99.90
1686;DHT22;840;47.980;7.830;2022-11-12T06:36:10;6.60;99.90
1686;DHT22;840;47.980;7.830;2022-11-12T06:38:39;6.60;99.90
1686;DHT22;840;47.980;7.830;2022-11-12T06:41:08;6.60;99.90
1686;DHT22;840;47.980;7.830;2022-11-12T06:43:36;6.50;99.90
1686;DHT22;840;47.980;7.830;2022-11-12T06:46:04;6.50;99.90
1686;DHT22;840;47.980;7.830;2022-11-12T06:48:32;6.50;99.90
1686;DHT22;840;47.980;7.830;2022-11-12T06:51:06;6.40;99.90
1686;DHT22;840;47.980;7.830;2022-11-12T06:53:35;6.40;99.90
1686;DHT22;840;47.980;7.830;2022-11-12T06:56:02;6.30;99.90
1686;DHT22;840;47.980;7.830;2022-11-12T06:58:29;6.30;99.90
1686;DHT22;840;47.980;7.830;2022-11-12T07:00:56;6.20;99.90
1686;DHT22;840;47.980;7.830;2022-11-12T07:03:23;6.20;99.90
1686;DHT22;840;47.980;7.830;2022-11-12T07:05:51;6.20;99.90
1686;DHT22;840;47.980;7.830;2022-11-12T07:08:19;6.20;99.90
1686;DHT22;840;47.980;7.830;2022-11-12T07:10:46;6.20;99.90
1686;DHT22;840;47.980;7.830;2022-11-12T07:13:13;6.20;99.90
1686;DHT22;840;47.980;7.830;2022-11-12T07:15:40;6.20;99.90
1686;DHT22;840;47.980;7.830;2022-11-12T07:18:08;6.20;99.90
1686;DHT22;840;47.980;7.830;2022-11-12T07:20:35;6.20;99.90
1686;DHT22;840;47.980;7.830;2022-11-12T07:23:02;6.20;99.90
1686;DHT22;840;47.980;7.830;2022-11-12T07:25:30;6.20;99.90
1686;DHT22;840;47.980;7.830;2022-11-12T07:27:57;6.20;99.90
1686;DHT22;840;47.980;7.830;2022-11-12T07:30:24;6.20;99.90
1686;DHT22;840;47.980;7.830;2022-11-12T07:32:51;6.30;99.90
1686;DHT22;840;47.980;7.830;2022-11-12T07:35:18;6.40;99.90
1686;DHT22;840;47.980;7.830;2022-11-12T07:37:45;6.40;99.90
1686;DHT22;840;47.980;7.830;2022-11-12T07:40:12;6.50;99.90
1686;DHT22;840;47.980;7.830;2022-11-12T07:42:41;6.60;99.90
1686;DHT22;840;47.980;7.830;2022-11-12T07:45:08;6.60;99.90
1686;DHT22;840;47.980;7.830;2022-11-12T07:47:35;6.60;99.90
1686;DHT22;840;47.980;7.830;2022-11-12T07:50:02;6.70;99.90
1686;DHT22;840;47.980;7.830;2022-11-12T07:52:31;6.80;99.90
1686;DHT22;840;47.980;7.830;2022-11-12T07:54:58;6.80;99.90
1686;DHT22;840;47.980;7.830;2022-11-12T07:57:24;6.80;99.90
1686;DHT22;840;47.980;7.830;2022-11-12T07:59:53;6.90;99.90
1686;DHT22;840;47.980;7.830;2022-11-12T08:02:19;6.90;99.90
1686;DHT22;840;47.980;7.830;2022-11-12T08:04:47;6.90;99.90
1686;DHT22;840;47.980;7.830;2022-11-12T08:07:14;7.00;99.90
1686;DHT22;840;47.980;7.830;2022-11-12T08:09:41;6.90;99.90
1686;DHT22;840;47.980;7.830;2022-11-12T08:12:07;6.90;99.90
1686;DHT22;840;47.980;7.830;2022-11-12T08:14:34;6.90;99.90
1686;DHT22;840;47.980;7.830;2022-11-12T08:17:02;7.00;99.90
1686;DHT22;840;47.980;7.830;2022-11-12T08:19:29;7.00;99.90
1686;DHT22;840;47.980;7.830;2022-11-12T08:21:56;7.00;99.90
1686;DHT22;840;47.980;7.830;2022-11-12T08:24:22;7.00;99.90
1686;DHT22;840;47.980;7.830;2022-11-12T08:26:49;7.00;99.90
1686;DHT22;840;47.980;7.830;2022-11-12T08:29:16;7.00;99.90
1686;DHT22;840;47.980;7.830;2022-11-12T08:31:45;6.90;99.90
1686;DHT22;840;47.980;7.830;2022-11-12T08:34:13;6.90;99.90
1686;DHT22;840;47.980;7.830;2022-11-12T08:36:40;7.00;99.90
1686;DHT22;840;47.980;7.830;2022-11-12T08:39:07;7.00;99.90
1686;DHT22;840;47.980;7.830;2022-11-12T08:41:34;7.10;99.90
1686;DHT22;840;47.980;7.830;2022-11-12T08:44:13;7.20;99.90
1686;DHT22;840;47.980;7.830;2022-11-12T08:46:40;7.20;99.90
1686;DHT22;840;47.980;7.830;2022-11-12T08:49:07;7.30;99.90
1686;DHT22;840;47.980;7.830;2022-11-12T08:51:36;7.40;99.90
1686;DHT22;840;47.980;7.830;2022-11-12T08:54:03;7.50;99.90
1686;DHT22;840;47.980;7.830;2022-11-12T08:56:30;7.50;99.90
1686;DHT22;840;47.980;7.830;2022-11-12T08:59:04;7.50;99.90
1686;DHT22;840;47.980;7.830;2022-11-12T09:01:32;7.50;99.90
1686;DHT22;840;47.980;7.830;2022-11-12T09:04:08;7.50;99.90
1686;DHT22;840;47.980;7.830;2022-11-12T09:07:09;7.50;99.90
1686;DHT22;840;47.980;7.830;2022-11-12T09:09:42;7.40;99.90
1686;DHT22;840;47.980;7.830;2022-11-12T09:12:25;7.40;99.90
1686;DHT22;840;47.980;7.830;2022-11-12T09:15:35;7.40;99.90
1686;DHT22;840;47.980;7.830;2022-11-12T09:18:22;7.40;99.90
1686;DHT22;840;47.980;7.830;2022-11-12T09:20:53;7.40;99.90
1686;DHT22;840;47.980;7.830;2022-11-12T09:26:32;7.70;99.90
1686;DHT22;840;47.980;7.830;2022-11-12T09:29:01;7.80;99.90
1686;DHT22;840;47.980;7.830;2022-11-12T09:31:40;7.90;99.90
1686;DHT22;840;47.980;7.830;2022-11-12T09:34:17;8.00;99.90
1686;DHT22;840;47.980;7.830;2022-11-12T09:39:58;8.20;99.90
1686;DHT22;840;47.980;7.830;2022-11-12T09:42:40;8.20;99.90
1686;DHT22;840;47.980;7.830;2022-11-12T09:45:37;8.30;99.90
1686;DHT22;840;47.980;7.830;2022-11-12T09:48:07;8.40;99.90
1686;DHT22;840;47.980;7.830;2022-11-12T09:50:41;8.40;99.90
1686;DHT22;840;47.980;7.830;2022-11-12T09:53:21;8.50;99.90
1686;DHT22;840;47.980;7.830;2022-11-12T09:56:00;8.60;99.90
1686;DHT22;840;47.980;7.830;2022-11-12T09:58:48;8.60;99.90
1686;DHT22;840;47.980;7.830;2022-11-12T10:01:21;8.70;99.90
1686;DHT22;840;47.980;7.830;2022-11-12T10:03:58;8.70;99.90
1686;DHT22;840;47.980;7.830;2022-11-12T10:06:44;8.70;99.90
1686;DHT22;840;47.980;7.830;2022-11-12T10:09:28;8.70;99.90
1686;DHT22;840;47.980;7.830;2022-11-12T10:12:22;8.70;99.90
1686;DHT22;840;47.980;7.830;2022-11-12T10:18:49;8.70;99.90
1686;DHT22;840;47.980;7.830;2022-11-12T10:21:32;8.70;99.90
1686;DHT22;840;47.980;7.830;2022-11-12T10:24:06;8.80;99.90
1686;DHT22;840;47.980;7.830;2022-11-12T10:26:33;8.80;99.90
1686;DHT22;840;47.980;7.830;2022-11-12T10:29:11;8.80;99.90
1686;DHT22;840;47.980;7.830;2022-11-12T10:31:40;8.80;99.90
1686;DHT22;840;47.980;7.830;2022-11-12T10:34:18;8.80;99.90
1686;DHT22;840;47.980;7.830;2022-11-12T10:36:49;8.80;99.90
1686;DHT22;840;47.980;7.830;2022-11-12T10:39:33;8.90;99.90
1686;DHT22;840;47.980;7.830;2022-11-12T10:42:05;8.90;99.90
1686;DHT22;840;47.980;7.830;2022-11-12T10:44:34;9.00;99.90
1686;DHT22;840;47.980;7.830;2022-11-12T10:47:21;8.90;99.90
1686;DHT22;840;47.980;7.830;2022-11-12T10:50:15;9.00;99.90
1686;DHT22;840;47.980;7.830;2022-11-12T10:52:58;9.10;99.90
1686;DHT22;840;47.980;7.830;2022-11-12T10:55:27;9.10;99.90
1686;DHT22;840;47.980;7.830;2022-11-12T10:58:13;9.20;99.90
1686;DHT22;840;47.980;7.830;2022-11-12T11:00:56;9.20;99.90
1686;DHT22;840;47.980;7.830;2022-11-12T11:03:26;9.30;99.90
1686;DHT22;840;47.980;7.830;2022-11-12T11:05:57;9.40;99.90
1686;DHT22;840;47.980;7.830;2022-11-12T11:08:32;9.50;99.90
1686;DHT22;840;47.980;7.830;2022-11-12T11:11:20;9.50;99.90
1686;DHT22;840;47.980;7.830;2022-11-12T11:13:48;9.60;99.90
1686;DHT22;840;47.980;7.830;2022-11-12T11:16:16;9.70;99.90
1686;DHT22;840;47.980;7.830;2022-11-12T11:18:48;9.60;99.90
1686;DHT22;840;47.980;7.830;2022-11-12T11:21:39;9.60;99.90
1686;DHT22;840;47.980;7.830;2022-11-12T11:24:24;9.60;99.90
1686;DHT22;840;47.980;7.830;2022-11-12T11:26:59;9.60;99.90
1686;DHT22;840;47.980;7.830;2022-11-12T11:29:46;9.40;99.90
1686;DHT22;840;47.980;7.830;2022-11-12T11:35:27;9.20;99.90
1686;DHT22;840;47.980;7.830;2022-11-12T11:38:05;9.20;99.90
1686;DHT22;840;47.980;7.830;2022-11-12T11:40:37;9.30;99.90
1686;DHT22;840;47.980;7.830;2022-11-12T11:43:23;9.40;99.90
1686;DHT22;840;47.980;7.830;2022-11-12T11:46:03;9.50;99.90
1686;DHT22;840;47.980;7.830;2022-11-12T11:48:40;9.70;99.90
1686;DHT22;840;47.980;7.830;2022-11-12T11:51:15;9.80;99.90
1686;DHT22;840;47.980;7.830;2022-11-12T11:53:51;9.80;99.90
1686;DHT22;840;47.980;7.830;2022-11-12T11:56:25;9.70;99.90
1686;DHT22;840;47.980;7.830;2022-11-12T11:59:21;9.60;99.90
1686;DHT22;840;47.980;7.830;2022-11-12T12:02:02;9.50;99.90
1686;DHT22;840;47.980;7.830;2022-11-12T12:04:44;9.60;99.90
1686;DHT22;840;47.980;7.830;2022-11-12T12:07:20;9.60;99.90
1686;DHT22;840;47.980;7.830;2022-11-12T12:09:56;9.50;99.90
1686;DHT22;840;47.980;7.830;2022-11-12T12:12:37;9.20;99.90
1686;DHT22;840;47.980;7.830;2022-11-12T12:15:24;9.20;99.90
1686;DHT22;840;47.980;7.830;2022-11-12T12:18:04;9.20;99.90
1686;DHT22;840;47.980;7.830;2022-11-12T12:20:39;9.20;99.90
1686;DHT22;840;47.980;7.830;2022-11-12T12:23:17;9.30;99.90
1686;DHT22;840;47.980;7.830;2022-11-12T12:25:48;9.30;99.90
1686;DHT22;840;47.980;7.830;2022-11-12T12:28:25;9.20;99.90
1686;DHT22;840;47.980;7.830;2022-11-12T12:30:57;9.20;99.90
1686;DHT22;840;47.980;7.830;2022-11-12T12:33:29;9.20;99.90
1686;DHT22;840;47.980;7.830;2022-11-12T12:36:01;9.20;99.90
1686;DHT22;840;47.980;7.830;2022-11-12T12:38:36;9.20;99.90
1686;DHT22;840;47.980;7.830;2022-11-12T12:41:11;9.20;99.90
1686;DHT22;840;47.980;7.830;2022-11-12T12:43:44;9.20;99.90
1686;DHT22;840;47.980;7.830;2022-11-12T12:46:12;9.30;99.90
1686;DHT22;840;47.980;7.830;2022-11-12T12:48:41;9.30;99.90
1686;DHT22;840;47.980;7.830;2022-11-12T12:51:09;9.30;99.90
1686;DHT22;840;47.980;7.830;2022-11-12T12:53:38;9.30;99.90
1686;DHT22;840;47.980;7.830;2022-11-12T12:56:05;9.30;99.90
1686;DHT22;840;47.980;7.830;2022-11-12T12:58:41;9.30;99.90
1686;DHT22;840;47.980;7.830;2022-11-12T13:01:12;9.30;99.90
1686;DHT22;840;47.980;7.830;2022-11-12T13:04:01;9.30;99.90
1686;DHT22;840;47.980;7.830;2022-11-12T13:06:31;9.20;99.90
1686;DHT22;840;47.980;7.830;2022-11-12T13:09:04;9.20;99.90
1686;DHT22;840;47.980;7.830;2022-11-12T13:11:51;9.20;99.90
1686;DHT22;840;47.980;7.830;2022-11-12T13:15:08;9.10;99.90
1686;DHT22;840;47.980;7.830;2022-11-12T13:17:48;9.00;99.90
1686;DHT22;840;47.980;7.830;2022-11-12T13:20:31;8.90;99.90
1686;DHT22;840;47.980;7.830;2022-11-12T13:23:00;9.00;99.90
1686;DHT22;840;47.980;7.830;2022-11-12T13:25:30;9.10;99.90
1686;DHT22;840;47.980;7.830;2022-11-12T13:28:09;9.20;99.90
1686;DHT22;840;47.980;7.830;2022-11-12T13:30:57;9.30;99.90
1686;DHT22;840;47.980;7.830;2022-11-12T13:33:34;9.30;99.90
1686;DHT22;840;47.980;7.830;2022-11-12T13:36:25;9.30;99.90
1686;DHT22;840;47.980;7.830;2022-11-12T13:38:53;9.10;99.90
1686;DHT22;840;47.980;7.830;2022-11-12T13:41:22;9.20;99.90
1686;DHT22;840;47.980;7.830;2022-11-12T13:44:07;9.20;99.90
1686;DHT22;840;47.980;7.830;2022-11-12T13:46:49;9.10;99.90
1686;DHT22;840;47.980;7.830;2022-11-12T13:49:18;9.10;99.90
1686;DHT22;840;47.980;7.830;2022-11-12T13:51:47;9.20;99.90
1686;DHT22;840;47.980;7.830;2022-11-12T13:54:34;9.20;99.90
1686;DHT22;840;47.980;7.830;2022-11-12T13:57:30;9.20;99.90
1686;DHT22;840;47.980;7.830;2022-11-12T14:00:20;9.20;99.90
1686;DHT22;840;47.980;7.830;2022-11-12T14:02:51;9.30;99.90
1686;DHT22;840;47.980;7.830;2022-11-12T14:05:21;9.30;99.90
1686;DHT22;840;47.980;7.830;2022-11-12T14:07:59;9.30;99.90
1686;DHT22;840;47.980;7.830;2022-11-12T14:10:36;9.40;99.90
1686;DHT22;840;47.980;7.830;2022-11-12T14:16:28;9.40;99.90
1686;DHT22;840;47.980;7.830;2022-11-12T14:19:12;9.40;99.90
1686;DHT22;840;47.980;7.830;2022-11-12T14:21:57;9.40;99.90
1686;DHT22;840;47.980;7.830;2022-11-12T14:24:25;9.50;99.90
1686;DHT22;840;47.980;7.830;2022-11-12T14:26:55;9.50;99.90
1686;DHT22;840;47.980;7.830;2022-11-12T14:29:23;9.40;99.90
1686;DHT22;840;47.980;7.830;2022-11-12T14:31:59;9.40;99.90
1686;DHT22;840;47.980;7.830;2022-11-12T14:34:28;9.40;99.90
1686;DHT22;840;47.980;7.830;2022-11-12T14:36:55;9.30;99.90
1686;DHT22;840;47.980;7.830;2022-11-12T14:39:23;9.30;99.90
1686;DHT22;840;47.980;7.830;2022-11-12T14:41:51;9.20;99.90
1686;DHT22;840;47.980;7.830;2022-11-12T14:44:23;9.10;99.90
1686;DHT22;840;47.980;7.830;2022-11-12T14:46:54;8.90;99.90
1686;DHT22;840;47.980;7.830;2022-11-12T14:49:27;8.90;99.90
1686;DHT22;840;47.980;7.830;2022-11-12T14:52:03;9.00;99.90
1686;DHT22;840;47.980;7.830;2022-11-12T14:54:34;9.00;99.90
1686;DHT22;840;47.980;7.830;2022-11-12T14:57:02;9.10;99.90
1686;DHT22;840;47.980;7.830;2022-11-12T14:59:32;9.10;99.90
1686;DHT22;840;47.980;7.830;2022-11-12T15:02:05;9.10;99.90
1686;DHT22;840;47.980;7.830;2022-11-12T15:04:36;9.10;99.90
1686;DHT22;840;47.980;7.830;2022-11-12T15:07:05;9.20;99.90
1686;DHT22;840;47.980;7.830;2022-11-12T15:09:36;9.20;99.90
1686;DHT22;840;47.980;7.830;2022-11-12T15:12:04;9.20;99.90
1686;DHT22;840;47.980;7.830;2022-11-12T15:14:34;9.10;99.90
1686;DHT22;840;47.980;7.830;2022-11-12T15:17:03;9.10;99.90
1686;DHT22;840;47.980;7.830;2022-11-12T15:19:32;9.00;99.90
1686;DHT22;840;47.980;7.830;2022-11-12T15:22:03;9.00;99.90
1686;DHT22;840;47.980;7.830;2022-11-12T15:24:32;9.00;99.90
1686;DHT22;840;47.980;7.830;2022-11-12T15:27:01;9.00;99.90
1686;DHT22;840;47.980;7.830;2022-11-12T15:29:30;9.00;99.90
1686;DHT22;840;47.980;7.830;2022-11-12T15:32:00;9.00;99.90
1686;DHT22;840;47.980;7.830;2022-11-12T15:34:33;8.90;99.90
1686;DHT22;840;47.980;7.830;2022-11-12T15:37:12;9.00;99.90
1686;DHT22;840;47.980;7.830;2022-11-12T15:39:46;9.00;99.90
1686;DHT22;840;47.980;7.830;2022-11-12T15:42:15;9.10;99.90
1686;DHT22;840;47.980;7.830;2022-11-12T15:44:43;9.10;99.90
1686;DHT22;840;47.980;7.830;2022-11-12T15:47:17;9.10;99.90
1686;DHT22;840;47.980;7.830;2022-11-12T15:49:49;9.10;99.90
1686;DHT22;840;47.980;7.830;2022-11-12T15:52:16;9.10;99.90
1686;DHT22;840;47.980;7.830;2022-11-12T15:54:43;9.00;99.90
1686;DHT22;840;47.980;7.830;2022-11-12T15:57:15;9.00;99.90
1686;DHT22;840;47.980;7.830;2022-11-12T15:59:43;9.00;99.90
1686;DHT22;840;47.980;7.830;2022-11-12T16:02:13;8.90;99.90
1686;DHT22;840;47.980;7.830;2022-11-12T16:04:40;8.80;99.90
1686;DHT22;840;47.980;7.830;2022-11-12T16:07:08;8.80;99.90
1686;DHT22;840;47.980;7.830;2022-11-12T16:09:35;8.70;99.90
1686;DHT22;840;47.980;7.830;2022-11-12T16:12:03;8.60;99.90
1686;DHT22;840;47.980;7.830;2022-11-12T16:14:30;8.50;99.90
1686;DHT22;840;47.980;7.830;2022-11-12T16:16:57;8.40;99.90
1686;DHT22;840;47.980;7.830;2022-11-12T16:19:26;8.40;99.90
1686;DHT22;840;47.980;7.830;2022-11-12T16:21:52;8.40;99.90
1686;DHT22;840;47.980;7.830;2022-11-12T16:24:19;8.40;99.90
1686;DHT22;840;47.980;7.830;2022-11-12T16:26:46;8.40;99.90
1686;DHT22;840;47.980;7.830;2022-11-12T16:29:13;8.50;99.90
1686;DHT22;840;47.980;7.830;2022-11-12T16:31:41;8.60;99.90
1686;DHT22;840;47.980;7.830;2022-11-12T16:34:11;8.60;99.90
1686;DHT22;840;47.980;7.830;2022-11-12T16:36:40;8.70;99.90
1686;DHT22;840;47.980;7.830;2022-11-12T16:39:08;8.70;99.90
1686;DHT22;840;47.980;7.830;2022-11-12T16:41:38;8.70;99.90
1686;DHT22;840;47.980;7.830;2022-11-12T16:44:05;8.70;99.90
1686;DHT22;840;47.980;7.830;2022-11-12T16:46:35;8.60;99.90
1686;DHT22;840;47.980;7.830;2022-11-12T16:49:04;8.60;99.90
1686;DHT22;840;47.980;7.830;2022-11-12T16:51:35;8.60;99.90
1686;DHT22;840;47.980;7.830;2022-11-12T16:54:07;8.60;99.90
1686;DHT22;840;47.980;7.830;2022-11-12T16:56:37;8.70;99.90
1686;DHT22;840;47.980;7.830;2022-11-12T16:59:05;8.70;99.90
1686;DHT22;840;47.980;7.830;2022-11-12T17:01:37;8.70;99.90
1686;DHT22;840;47.980;7.830;2022-11-12T17:04:04;8.70;99.90
1686;DHT22;840;47.980;7.830;2022-11-12T17:06:37;8.70;99.90
1686;DHT22;840;47.980;7.830;2022-11-12T17:09:07;8.60;99.90
1686;DHT22;840;47.980;7.830;2022-11-12T17:11:34;8.50;99.90
1686;DHT22;840;47.980;7.830;2022-11-12T17:14:04;8.50;99.90
1686;DHT22;840;47.980;7.830;2022-11-12T17:16:31;8.50;99.90
1686;DHT22;840;47.980;7.830;2022-11-12T17:19:00;8.40;99.90